Time;durP1;ratioP1;P1;durP2;ratioP2;P2;SDS_P1;SDS_P2;PMS_P1;PMS_P2;Temp;Humidity;BMP_temperature;BMP_pressure;BME280_temperature;BME280_humidity;BME280_pressure;Samples;Min_cycle;Max_cycle;Signal;HPM_P1;HPM_P2
2024/04/25 00:00:00;;;;;;;28.30;6.80;;;;;;;;;;5498963;26;20014;-50
2024/04/25 00:02:26;;;;;;;22.73;5.95;;;;;;;;;;5501162;26;19994;-50
2024/04/25 00:04:52;;;;;;;31.10;5.82;;;;;;;;;;5468549;26;20066;-50
2024/04/25 00:07:18;;;;;;;25.95;5.05;;;;;;;;;;5469545;26;20039;-50
2024/04/25 00:09:44;;;;;;;28.13;4.88;;;;;;;;;;5468142;26;19994;-50
2024/04/25 00:12:10;;;;;;;28.27;6.38;;;;;;;;;;5499022;26;19998;-50
2024/04/25 00:14:36;;;;;;;22.92;5.25;;;;;;;;;;5500758;26;20441;-50
2024/04/25 00:17:02;;;;;;;24.67;4.82;;;;;;;;;;5502019;26;20022;-50
2024/04/25 00:19:28;;;;;;;25.08;5.15;;;;;;;;;;5470184;26;20009;-50
2024/04/25 00:21:54;;;;;;;23.30;5.35;;;;;;;;;;5468303;26;20013;-50
2024/04/25 00:24:22;;;;;;;26.95;4.60;;;;;;;;;;5469988;26;19994;-50
2024/04/25 00:26:48;;;;;;;22.50;4.75;;;;;;;;;;5501813;26;20002;-50
2024/04/25 00:29:14;;;;;;;15.38;3.72;;;;;;;;;;5469754;26;20001;-50
2024/04/25 00:31:40;;;;;;;22.75;4.68;;;;;;;;;;5467992;26;19998;-50
2024/04/25 00:34:06;;;;;;;31.45;4.95;;;;;;;;;;5469644;26;19994;-51
2024/04/25 00:36:32;;;;;;;19.50;4.75;;;;;;;;;;5469710;26;19994;-50
2024/04/25 00:39:01;;;;;;;22.58;4.55;;;;;;;;;;5499301;26;20001;-50
2024/04/25 00:41:27;;;;;;;18.83;4.43;;;;;;;;;;5469620;26;19998;-50
2024/04/25 00:43:53;;;;;;;20.08;4.35;;;;;;;;;;5501326;26;19991;-50
2024/04/25 00:46:20;;;;;;;13.60;3.72;;;;;;;;;;5469642;26;20034;-50
2024/04/25 00:48:46;;;;;;;19.48;4.18;;;;;;;;;;5464538;26;20042;-50
2024/04/25 00:51:12;;;;;;;14.40;3.70;;;;;;;;;;5469533;26;20006;-50
2024/04/25 00:53:39;;;;;;;14.48;3.40;;;;;;;;;;5469431;26;19997;-50
2024/04/25 00:56:05;;;;;;;15.98;4.03;;;;;;;;;;5439269;26;19990;-50
2024/04/25 00:58:32;;;;;;;11.27;3.55;;;;;;;;;;5467728;26;20010;-50
2024/04/25 01:00:58;;;;;;;22.58;4.35;;;;;;;;;;5467504;26;19998;-50
2024/04/25 01:03:24;;;;;;;12.35;3.35;;;;;;;;;;5469110;26;20002;-50
2024/04/25 01:05:50;;;;;;;15.23;3.63;;;;;;;;;;5469295;26;20030;-50
2024/04/25 01:08:16;;;;;;;14.98;3.85;;;;;;;;;;5469022;26;19992;-50
2024/04/25 01:10:42;;;;;;;12.65;3.40;;;;;;;;;;5499032;26;20005;-50
2024/04/25 01:13:08;;;;;;;13.70;3.15;;;;;;;;;;5468790;26;19994;-50
2024/04/25 01:15:34;;;;;;;17.52;3.85;;;;;;;;;;5468860;26;20460;-50
2024/04/25 01:18:00;;;;;;;23.02;3.92;;;;;;;;;;5470347;26;20002;-50
2024/04/25 01:20:26;;;;;;;12.27;2.83;;;;;;;;;;5472520;26;20427;-50
2024/04/25 01:22:53;;;;;;;13.95;3.63;;;;;;;;;;5472706;26;20006;-50
2024/04/25 01:25:20;;;;;;;10.25;2.95;;;;;;;;;;5504576;26;20099;-50
2024/04/25 01:27:46;;;;;;;13.18;2.85;;;;;;;;;;5467091;26;20026;-50
2024/04/25 01:30:12;;;;;;;11.70;3.10;;;;;;;;;;5465534;26;19990;-50
2024/04/25 01:32:38;;;;;;;10.63;2.70;;;;;;;;;;5481320;26;20013;-50
2024/04/25 01:35:05;;;;;;;12.98;3.17;;;;;;;;;;5473124;26;20009;-50
2024/04/25 01:37:31;;;;;;;15.25;2.85;;;;;;;;;;5470021;26;19995;-50
2024/04/25 01:39:57;;;;;;;9.73;3.13;;;;;;;;;;5442482;26;20354;-50
2024/04/25 01:42:23;;;;;;;8.32;2.88;;;;;;;;;;5504162;26;20460;-50
2024/04/25 01:44:49;;;;;;;10.50;3.53;;;;;;;;;;5442126;26;20004;-50
2024/04/25 01:47:15;;;;;;;11.77;3.22;;;;;;;;;;5471135;26;19994;-50
2024/04/25 01:49:41;;;;;;;10.88;2.83;;;;;;;;;;5471834;26;20062;-50
2024/04/25 01:52:07;;;;;;;11.07;2.90;;;;;;;;;;5504227;26;20043;-50
2024/04/25 01:54:33;;;;;;;10.27;2.67;;;;;;;;;;5472163;26;20397;-50
2024/04/25 01:56:59;;;;;;;15.88;3.00;;;;;;;;;;5503320;26;20066;-50
2024/04/25 01:59:25;;;;;;;9.38;2.70;;;;;;;;;;5503348;26;19994;-50
2024/04/25 02:01:51;;;;;;;7.85;2.38;;;;;;;;;;5471583;26;20009;-50
2024/04/25 02:04:17;;;;;;;6.15;2.33;;;;;;;;;;5471387;26;19994;-50
2024/04/25 02:06:43;;;;;;;9.15;2.78;;;;;;;;;;5503317;26;20005;-50
2024/04/25 02:09:09;;;;;;;12.20;2.60;;;;;;;;;;5503281;26;19990;-50
2024/04/25 02:11:35;;;;;;;13.00;2.95;;;;;;;;;;5504117;26;20064;-50
2024/04/25 02:14:01;;;;;;;6.95;2.35;;;;;;;;;;5471706;26;20060;-51
2024/04/25 02:16:28;;;;;;;9.20;2.30;;;;;;;;;;5471867;26;19994;-50
2024/04/25 02:18:54;;;;;;;14.55;2.70;;;;;;;;;;5503791;26;20006;-50
2024/04/25 02:26:49;;;;;;;10.13;2.50;;;;;;;;;;5503894;26;20042;-50
2024/04/25 02:29:16;;;;;;;10.27;2.40;;;;;;;;;;5502887;26;20006;-50
2024/04/25 02:31:42;;;;;;;8.15;1.77;;;;;;;;;;5471571;26;19994;-50
2024/04/25 02:34:08;;;;;;;9.88;2.17;;;;;;;;;;5503727;26;20370;-50
2024/04/25 02:36:36;;;;;;;4.75;2.35;;;;;;;;;;5503611;26;20002;-50
2024/04/25 02:39:02;;;;;;;10.32;2.45;;;;;;;;;;5503553;26;19991;-50
2024/04/25 02:41:28;;;;;;;6.00;2.15;;;;;;;;;;5471729;26;20053;-50
2024/04/25 02:43:54;;;;;;;7.63;2.33;;;;;;;;;;5503471;26;20441;-50
2024/04/25 02:46:21;;;;;;;9.00;2.22;;;;;;;;;;5503462;26;20066;-50
2024/04/25 02:48:47;;;;;;;9.60;2.22;;;;;;;;;;5503309;26;20448;-50
2024/04/25 02:51:13;;;;;;;4.15;1.95;;;;;;;;;;5503472;26;20002;-50
2024/04/25 02:53:39;;;;;;;7.70;2.67;;;;;;;;;;5503393;26;20005;-50
2024/04/25 02:56:06;;;;;;;5.88;2.10;;;;;;;;;;5471528;26;20013;-51
2024/04/25 02:58:32;;;;;;;6.68;2.35;;;;;;;;;;5503206;26;20082;-50
2024/04/25 03:00:59;;;;;;;4.45;1.80;;;;;;;;;;5503263;26;20026;-50
2024/04/25 03:03:25;;;;;;;10.15;2.20;;;;;;;;;;5471297;26;20087;-50
2024/04/25 03:05:52;;;;;;;7.00;1.95;;;;;;;;;;5503053;26;20001;-50
2024/04/25 03:08:18;;;;;;;8.02;2.40;;;;;;;;;;5471149;26;20470;-50
2024/04/25 03:10:44;;;;;;;6.18;2.20;;;;;;;;;;5502958;26;19990;-50
2024/04/25 03:13:10;;;;;;;4.88;1.90;;;;;;;;;;5503057;26;19989;-50
2024/04/25 03:15:36;;;;;;;5.55;2.08;;;;;;;;;;5502982;26;20477;-50
2024/04/25 03:18:02;;;;;;;5.25;2.00;;;;;;;;;;5470914;26;20005;-50
2024/04/25 03:20:28;;;;;;;8.05;1.95;;;;;;;;;;5470824;26;20006;-50
2024/04/25 03:22:54;;;;;;;5.95;2.00;;;;;;;;;;5502960;26;19997;-50
2024/04/25 03:25:20;;;;;;;6.40;1.90;;;;;;;;;;5502833;26;20000;-50
2024/04/25 03:27:46;;;;;;;4.85;2.15;;;;;;;;;;5471007;26;19994;-50
2024/04/25 03:30:12;;;;;;;5.53;2.20;;;;;;;;;;5440768;26;19994;-50
2024/04/25 03:32:38;;;;;;;5.70;1.90;;;;;;;;;;5470971;26;20471;-50
2024/04/25 03:35:04;;;;;;;6.78;2.38;;;;;;;;;;5502656;26;20002;-50
2024/04/25 03:37:31;;;;;;;3.47;2.08;;;;;;;;;;5440805;26;20076;-50
2024/04/25 03:39:56;;;;;;;4.72;1.73;;;;;;;;;;5469886;26;19994;-50
2024/04/25 03:42:23;;;;;;;4.85;1.80;;;;;;;;;;5469936;26;20004;-50
2024/04/25 03:44:50;;;;;;;6.03;2.05;;;;;;;;;;5470663;26;19994;-50
2024/04/25 03:47:16;;;;;;;6.75;2.20;;;;;;;;;;5502664;26;20012;-50
2024/04/25 03:49:42;;;;;;;3.55;1.70;;;;;;;;;;5502457;26;19998;-50
2024/04/25 03:52:09;;;;;;;5.43;1.65;;;;;;;;;;5470564;26;20343;-50
2024/04/25 03:54:35;;;;;;;6.05;1.80;;;;;;;;;;5502407;26;20009;-50
2024/04/25 03:57:01;;;;;;;5.13;2.00;;;;;;;;;;5470305;26;19998;-50
2024/04/25 03:59:27;;;;;;;5.93;2.15;;;;;;;;;;5502204;26;19994;-50
2024/04/25 04:01:54;;;;;;;7.15;1.92;;;;;;;;;;5501234;26;19994;-50
2024/04/25 04:04:20;;;;;;;3.33;1.77;;;;;;;;;;5502126;26;20086;-50
2024/04/25 04:06:46;;;;;;;4.93;1.88;;;;;;;;;;5470488;26;20059;-50
2024/04/25 04:09:12;;;;;;;6.57;2.20;;;;;;;;;;5502049;26;19990;-50
2024/04/25 04:11:40;;;;;;;4.13;1.92;;;;;;;;;;5468458;26;19999;-50
2024/04/25 04:14:06;;;;;;;4.93;1.90;;;;;;;;;;5470494;26;19994;-50
2024/04/25 04:16:32;;;;;;;6.00;1.63;;;;;;;;;;5470183;26;20449;-50
2024/04/25 04:18:58;;;;;;;3.30;1.85;;;;;;;;;;5437939;26;19998;-50
2024/04/25 04:21:24;;;;;;;5.70;1.75;;;;;;;;;;5501783;26;19987;-50
2024/04/25 04:23:50;;;;;;;5.57;1.85;;;;;;;;;;5501834;26;19997;-51
2024/04/25 04:26:16;;;;;;;6.07;2.05;;;;;;;;;;5469621;26;19986;-50
2024/04/25 04:28:42;;;;;;;5.30;2.05;;;;;;;;;;5499757;26;19999;-50
2024/04/25 04:31:08;;;;;;;7.13;2.10;;;;;;;;;;5501910;26;20005;-50
2024/04/25 04:33:34;;;;;;;3.92;2.03;;;;;;;;;;5469532;26;20010;-50
2024/04/25 04:36:03;;;;;;;4.35;1.85;;;;;;;;;;5499334;26;19994;-50
2024/04/25 04:38:33;;;;;;;6.10;2.00;;;;;;;;;;5439328;26;20009;-50
2024/04/25 04:40:59;;;;;;;7.10;2.00;;;;;;;;;;5501536;26;20005;-50
2024/04/25 04:43:25;;;;;;;8.40;2.10;;;;;;;;;;5467595;26;19998;-50
2024/04/25 04:45:55;;;;;;;7.35;2.15;;;;;;;;;;5501391;26;19990;-50
2024/04/25 04:48:21;;;;;;;13.95;2.42;;;;;;;;;;5470332;26;19998;-50
2024/04/25 04:50:47;;;;;;;13.90;2.85;;;;;;;;;;5497648;26;19999;-50
2024/04/25 04:53:13;;;;;;;9.07;2.53;;;;;;;;;;5436352;26;20456;-50
2024/04/25 04:55:41;;;;;;;9.57;2.95;;;;;;;;;;5468157;26;20006;-51
2024/04/25 04:58:08;;;;;;;9.20;2.70;;;;;;;;;;5436166;26;19995;-50
2024/04/25 05:00:34;;;;;;;12.45;2.72;;;;;;;;;;5436467;26;19994;-50
2024/04/25 05:03:00;;;;;;;11.30;3.15;;;;;;;;;;5502714;26;19994;-50
2024/04/25 05:05:28;;;;;;;12.80;3.42;;;;;;;;;;5472766;26;20002;-51
2024/04/25 05:07:56;;;;;;;27.00;3.90;;;;;;;;;;5471649;26;20002;-50
2024/04/25 05:10:23;;;;;;;12.93;3.05;;;;;;;;;;5459067;26;19999;-50
2024/04/25 05:12:49;;;;;;;16.27;3.00;;;;;;;;;;5457929;26;19994;-50
2024/04/25 05:15:15;;;;;;;19.40;3.55;;;;;;;;;;5442519;26;19990;-50
2024/04/25 05:17:41;;;;;;;23.63;4.32;;;;;;;;;;5470387;26;20487;-50
2024/04/25 05:20:08;;;;;;;32.22;4.25;;;;;;;;;;5466846;26;20030;-50
2024/04/25 05:22:36;;;;;;;30.45;4.93;;;;;;;;;;5500524;26;19990;-51
2024/04/25 05:25:02;;;;;;;24.48;4.60;;;;;;;;;;5442749;26;20004;-50
2024/04/25 05:27:28;;;;;;;34.47;6.45;;;;;;;;;;5504571;26;20448;-50
2024/04/25 05:29:54;;;;;;;32.63;6.05;;;;;;;;;;5500760;26;20436;-50
2024/04/25 05:32:20;;;;;;;31.30;6.57;;;;;;;;;;5434766;26;19994;-50
2024/04/25 05:34:49;;;;;;;34.95;5.65;;;;;;;;;;5493154;26;20009;-50
2024/04/25 05:37:15;;;;;;;86.25;10.15;;;;;;;;;;5472382;26;19994;-51
2024/04/25 05:39:41;;;;;;;70.75;9.95;;;;;;;;;;5469646;26;19999;-51
2024/04/25 05:42:08;;;;;;;72.15;8.70;;;;;;;;;;5503845;26;20004;-50
2024/04/25 05:44:34;;;;;;;79.55;9.68;;;;;;;;;;5503972;26;20054;-50
2024/04/25 05:47:00;;;;;;;66.40;9.65;;;;;;;;;;5503037;26;19998;-50
2024/04/25 05:49:26;;;;;;;64.30;9.38;;;;;;;;;;5503745;26;19991;-50
2024/04/25 05:51:52;;;;;;;66.78;9.50;;;;;;;;;;5499332;26;20009;-50
2024/04/25 05:54:18;;;;;;;72.75;9.52;;;;;;;;;;5503996;26;19986;-50
2024/04/25 05:56:44;;;;;;;64.93;8.65;;;;;;;;;;5503997;26;20005;-50
2024/04/25 05:59:12;;;;;;;54.45;8.13;;;;;;;;;;5501521;26;20329;-50
2024/04/25 06:01:38;;;;;;;55.47;9.52;;;;;;;;;;5502625;26;20012;-50
2024/04/25 06:04:04;;;;;;;71.00;9.55;;;;;;;;;;5437186;26;20492;-50
2024/04/25 06:06:30;;;;;;;62.63;10.02;;;;;;;;;;5500671;26;19995;-50
2024/04/25 06:08:56;;;;;;;62.88;8.80;;;;;;;;;;5465350;26;19998;-50
2024/04/25 06:11:24;;;;;;;66.40;10.20;;;;;;;;;;5498994;26;20017;-50
2024/04/25 06:13:50;;;;;;;63.47;9.02;;;;;;;;;;5469115;26;19994;-50
2024/04/25 06:16:17;;;;;;;56.92;9.23;;;;;;;;;;5500602;26;19990;-50
2024/04/25 06:18:45;;;;;;;51.10;9.10;;;;;;;;;;5447254;26;19994;-50
2024/04/25 06:21:11;;;;;;;64.40;8.60;;;;;;;;;;5432825;26;20011;-50
2024/04/25 06:23:37;;;;;;;62.38;8.90;;;;;;;;;;5476661;26;20020;-50
2024/04/25 06:26:03;;;;;;;49.30;8.10;;;;;;;;;;5495473;26;20002;-50
2024/04/25 06:28:29;;;;;;;49.10;8.45;;;;;;;;;;5498487;26;20005;-51
2024/04/25 06:30:59;;;;;;;76.60;9.32;;;;;;;;;;5470544;26;20002;-50
2024/04/25 06:33:26;;;;;;;43.13;7.60;;;;;;;;;;5493015;26;19998;-50
2024/04/25 06:35:52;;;;;;;50.45;7.75;;;;;;;;;;5429508;26;19999;-50
2024/04/25 06:38:18;;;;;;;37.83;7.20;;;;;;;;;;5461012;26;20437;-50
2024/04/25 06:40:44;;;;;;;50.78;8.75;;;;;;;;;;5460300;26;20035;-50
2024/04/25 06:43:10;;;;;;;44.90;8.18;;;;;;;;;;5447138;26;20341;-50
2024/04/25 06:45:37;;;;;;;42.55;7.72;;;;;;;;;;5433862;26;20002;-50
2024/04/25 06:48:04;;;;;;;35.22;7.43;;;;;;;;;;5458028;26;19990;-50
2024/04/25 06:50:30;;;;;;;31.95;6.47;;;;;;;;;;5481560;26;19998;-50
2024/04/25 06:52:56;;;;;;;58.28;7.65;;;;;;;;;;5500721;26;19998;-50
2024/04/25 06:55:22;;;;;;;40.90;6.10;;;;;;;;;;5499603;26;20006;-51
2024/04/25 06:57:48;;;;;;;41.22;6.88;;;;;;;;;;5459236;26;20016;-50
2024/04/25 07:00:15;;;;;;;37.53;6.18;;;;;;;;;;5449156;26;19998;-50
2024/04/25 07:02:40;;;;;;;35.15;5.90;;;;;;;;;;5464447;26;19998;-50
2024/04/25 07:05:09;;;;;;;37.67;6.30;;;;;;;;;;5464769;26;20074;-50
2024/04/25 07:07:35;;;;;;;19.63;5.15;;;;;;;;;;5463365;26;20003;-51
2024/04/25 07:10:01;;;;;;;26.13;5.32;;;;;;;;;;5498478;26;20005;-50
2024/04/25 07:12:30;;;;;;;27.80;5.53;;;;;;;;;;5498842;26;20022;-50
2024/04/25 07:14:56;;;;;;;26.25;5.80;;;;;;;;;;5451852;26;19995;-50
2024/04/25 07:17:22;;;;;;;24.95;5.25;;;;;;;;;;5468259;26;20026;-50
2024/04/25 07:19:51;;;;;;;23.60;5.00;;;;;;;;;;5496133;26;19998;-51
2024/04/25 07:22:17;;;;;;;31.60;5.03;;;;;;;;;;5424592;26;20021;-50
2024/04/25 07:24:43;;;;;;;40.60;5.25;;;;;;;;;;5428096;26;20048;-50
2024/04/25 07:27:09;;;;;;;38.60;5.88;;;;;;;;;;5433422;26;20002;-50
2024/04/25 07:29:36;;;;;;;37.38;5.95;;;;;;;;;;5492762;26;20460;-51
2024/04/25 07:32:03;;;;;;;44.70;6.10;;;;;;;;;;5454588;26;19999;-50
2024/04/25 07:34:29;;;;;;;57.42;8.75;;;;;;;;;;5461844;26;20002;-50
2024/04/25 07:36:55;;;;;;;38.80;6.05;;;;;;;;;;5439368;26;20051;-51
2024/04/25 07:39:21;;;;;;;26.83;4.75;;;;;;;;;;5480831;26;19997;-50
2024/04/25 07:41:47;;;;;;;31.40;5.90;;;;;;;;;;5467869;26;20460;-50
2024/04/25 07:44:13;;;;;;;23.38;4.63;;;;;;;;;;5499560;26;19994;-50
2024/04/25 07:46:40;;;;;;;29.27;4.72;;;;;;;;;;5500342;26;20017;-50
2024/04/25 07:49:07;;;;;;;27.42;5.30;;;;;;;;;;5497504;26;20002;-50
2024/04/25 07:51:33;;;;;;;25.88;4.95;;;;;;;;;;5498785;26;20445;-50
2024/04/25 07:53:59;;;;;;;38.42;5.25;;;;;;;;;;5501683;26;20026;-50
2024/04/25 07:56:25;;;;;;;25.42;5.40;;;;;;;;;;5500144;26;19994;-50
2024/04/25 07:58:51;;;;;;;30.45;4.65;;;;;;;;;;5497045;26;20002;-50
2024/04/25 08:01:17;;;;;;;23.90;5.13;;;;;;;;;;5494004;26;20061;-50
2024/04/25 08:03:44;;;;;;;27.92;4.80;;;;;;;;;;5458538;26;20044;-50
2024/04/25 08:06:12;;;;;;;34.50;5.13;;;;;;;;;;5474535;26;19990;-50
2024/04/25 08:08:38;;;;;;;27.33;5.10;;;;;;;;;;5466666;26;20026;-50
2024/04/25 08:11:04;;;;;;;46.75;5.38;;;;;;;;;;5457763;26;19999;-51
2024/04/25 08:13:30;;;;;;;26.58;5.43;;;;;;;;;;5461162;26;20025;-50
2024/04/25 08:15:56;;;;;;;30.70;5.40;;;;;;;;;;5453431;26;20094;-50
2024/04/25 08:18:22;;;;;;;26.65;5.53;;;;;;;;;;5466186;26;20494;-50
2024/04/25 08:20:48;;;;;;;36.22;6.25;;;;;;;;;;5467296;26;20009;-50
2024/04/25 08:23:15;;;;;;;37.30;5.78;;;;;;;;;;5501173;26;20009;-51
2024/04/25 08:25:41;;;;;;;40.33;6.50;;;;;;;;;;5495497;26;20076;-50
2024/04/25 08:28:09;;;;;;;34.97;6.03;;;;;;;;;;5488414;26;20010;-50
2024/04/25 08:30:35;;;;;;;41.63;6.47;;;;;;;;;;5500654;26;20074;-51
2024/04/25 08:33:01;;;;;;;41.65;6.60;;;;;;;;;;5463272;26;19998;-50
2024/04/25 08:35:27;;;;;;;50.33;7.28;;;;;;;;;;5502248;26;20071;-51
2024/04/25 08:37:53;;;;;;;54.95;7.28;;;;;;;;;;5503894;26;20010;-50
2024/04/25 08:40:19;;;;;;;53.50;6.55;;;;;;;;;;5464198;26;20011;-50
2024/04/25 08:42:50;;;;;;;37.40;6.60;;;;;;;;;;5442622;26;20005;-50
2024/04/25 08:45:16;;;;;;;30.77;5.43;;;;;;;;;;5471069;26;20006;-50
2024/04/25 08:47:42;;;;;;;37.95;6.60;;;;;;;;;;5465844;26;20006;-50
2024/04/25 08:50:09;;;;;;;31.63;5.13;;;;;;;;;;5466639;26;20026;-50
2024/04/25 08:52:35;;;;;;;33.50;5.55;;;;;;;;;;5504144;26;19994;-50
2024/04/25 08:55:01;;;;;;;38.70;5.47;;;;;;;;;;5458414;26;20012;-50
2024/04/25 08:57:29;;;;;;;33.80;6.25;;;;;;;;;;5469720;26;19995;-50
2024/04/25 08:59:55;;;;;;;43.45;7.22;;;;;;;;;;5485492;26;20002;-50
2024/04/25 09:02:21;;;;;;;36.85;7.45;;;;;;;;;;5441986;26;20002;-50
2024/04/25 09:04:48;;;;;;;54.55;8.27;;;;;;;;;;5454704;26;20048;-50
2024/04/25 09:07:15;;;;;;;69.95;8.25;;;;;;;;;;5496925;26;20013;-50
2024/04/25 09:09:41;;;;;;;54.90;7.03;;;;;;;;;;5480062;26;20006;-50
2024/04/25 09:12:07;;;;;;;46.50;5.50;;;;;;;;;;5491104;26;20017;-51
2024/04/25 09:14:33;;;;;;;76.75;8.85;;;;;;;;;;5501189;26;20416;-50
2024/04/25 09:16:59;;;;;;;33.25;5.28;;;;;;;;;;5497163;26;20009;-50
2024/04/25 09:19:25;;;;;;;41.20;6.65;;;;;;;;;;5503533;26;20006;-50
2024/04/25 09:21:51;;;;;;;50.92;8.45;;;;;;;;;;5461588;26;20042;-50
2024/04/25 09:24:17;;;;;;;67.55;9.25;;;;;;;;;;5465483;26;20073;-50
2024/04/25 09:26:45;;;;;;;56.00;8.65;;;;;;;;;;5501009;26;20055;-50
2024/04/25 09:29:11;;;;;;;42.33;7.55;;;;;;;;;;5471479;26;20002;-50
2024/04/25 09:31:37;;;;;;;52.70;7.45;;;;;;;;;;5441075;26;20003;-50
2024/04/25 09:34:03;;;;;;;65.68;9.75;;;;;;;;;;5484897;26;19998;-51
2024/04/25 09:36:29;;;;;;;63.20;9.82;;;;;;;;;;5469366;26;20007;-50
2024/04/25 09:38:56;;;;;;;69.65;9.90;;;;;;;;;;5486642;26;20003;-50
2024/04/25 09:41:22;;;;;;;63.47;8.63;;;;;;;;;;5470257;26;20002;-50
2024/04/25 09:43:48;;;;;;;58.83;7.72;;;;;;;;;;5469630;26;20008;-50
2024/04/25 09:46:16;;;;;;;87.80;9.88;;;;;;;;;;5499992;26;20010;-51
2024/04/25 09:48:43;;;;;;;60.13;8.93;;;;;;;;;;5460936;26;20002;-51
2024/04/25 09:51:28;;;;;;;59.22;9.10;;;;;;;;;;5454896;26;20013;-50
2024/04/25 09:54:07;;;;;;;66.75;8.82;;;;;;;;;;5495577;26;20002;-50
2024/04/25 09:56:33;;;;;;;66.93;9.52;;;;;;;;;;5482887;26;19990;-50
2024/04/25 09:59:09;;;;;;;81.35;10.50;;;;;;;;;;5464005;26;20043;-50
2024/04/25 10:01:35;;;;;;;57.72;9.60;;;;;;;;;;5462342;26;19999;-50
2024/04/25 10:04:01;;;;;;;65.57;9.73;;;;;;;;;;5449541;26;20476;-50
2024/04/25 10:06:27;;;;;;;51.45;10.80;;;;;;;;;;5469122;26;20051;-50
2024/04/25 10:08:55;;;;;;;63.42;8.80;;;;;;;;;;5467690;26;20053;-50
2024/04/25 10:11:21;;;;;;;58.35;7.82;;;;;;;;;;5500321;26;20078;-51
2024/04/25 10:13:48;;;;;;;61.05;8.27;;;;;;;;;;5471341;26;20002;-50
2024/04/25 10:16:14;;;;;;;47.67;7.70;;;;;;;;;;5470730;26;19994;-50
2024/04/25 10:18:50;;;;;;;70.03;8.45;;;;;;;;;;5463663;26;20013;-50
2024/04/25 10:21:16;;;;;;;50.80;9.63;;;;;;;;;;5491867;26;19998;-50
2024/04/25 10:23:41;;;;;;;45.58;8.20;;;;;;;;;;5478427;26;20005;-50
2024/04/25 10:26:17;;;;;;;72.38;10.48;;;;;;;;;;5466779;26;20015;-50
2024/04/25 10:28:43;;;;;;;62.13;9.85;;;;;;;;;;5497947;26;20018;-50
2024/04/25 10:31:09;;;;;;;76.50;11.18;;;;;;;;;;5443058;26;20073;-50
2024/04/25 10:33:35;;;;;;;58.03;8.52;;;;;;;;;;5459570;26;19999;-50
2024/04/25 10:36:05;;;;;;;52.88;8.75;;;;;;;;;;5439354;26;19991;-50
2024/04/25 10:38:31;;;;;;;43.95;7.65;;;;;;;;;;5498479;26;20043;-50
2024/04/25 10:40:58;;;;;;;37.55;7.07;;;;;;;;;;5490613;26;20005;-50
2024/04/25 10:43:24;;;;;;;33.25;5.90;;;;;;;;;;5501563;26;20002;-51
2024/04/25 10:45:50;;;;;;;46.88;7.15;;;;;;;;;;5462940;26;20006;-50
2024/04/25 10:48:16;;;;;;;40.63;7.57;;;;;;;;;;5467889;26;20066;-51
2024/04/25 10:50:42;;;;;;;54.25;6.78;;;;;;;;;;5465793;26;20014;-51
2024/04/25 10:53:08;;;;;;;39.22;7.53;;;;;;;;;;5471852;26;19998;-51
2024/04/25 10:55:34;;;;;;;37.28;7.13;;;;;;;;;;5468720;26;20078;-51
2024/04/25 10:58:13;;;;;;;42.85;7.35;;;;;;;;;;5492116;26;20011;-51
2024/04/25 11:00:40;;;;;;;49.72;6.72;;;;;;;;;;5482594;26;20006;-50
2024/04/25 11:03:09;;;;;;;55.13;7.57;;;;;;;;;;5466884;26;20010;-50
2024/04/25 11:05:37;;;;;;;41.63;7.13;;;;;;;;;;5494725;26;19998;-51
2024/04/25 11:08:03;;;;;;;40.88;6.82;;;;;;;;;;5459880;26;20013;-51
2024/04/25 11:10:29;;;;;;;60.45;8.05;;;;;;;;;;5495952;26;20002;-51
2024/04/25 11:12:57;;;;;;;51.40;7.53;;;;;;;;;;5429021;26;20015;-51
2024/04/25 11:15:25;;;;;;;54.92;8.90;;;;;;;;;;5433260;26;20035;-50
2024/04/25 11:17:51;;;;;;;55.72;6.47;;;;;;;;;;5496368;26;20006;-52
2024/04/25 11:20:17;;;;;;;37.50;6.82;;;;;;;;;;5493184;26;20444;-51
2024/04/25 11:22:43;;;;;;;33.85;6.20;;;;;;;;;;5493984;26;20128;-50
2024/04/25 11:25:15;;;;;;;43.60;6.53;;;;;;;;;;5498291;26;20464;-51
2024/04/25 11:27:41;;;;;;;38.25;6.15;;;;;;;;;;5488086;26;20005;-51
2024/04/25 11:30:07;;;;;;;35.65;5.75;;;;;;;;;;5489145;26;20010;-50
2024/04/25 11:32:36;;;;;;;48.03;6.30;;;;;;;;;;5463712;26;20010;-51
2024/04/25 11:35:08;;;;;;;56.83;9.00;;;;;;;;;;5464145;26;20017;-51
2024/04/25 11:37:38;;;;;;;39.17;6.97;;;;;;;;;;5494927;26;19998;-51
2024/04/25 11:40:04;;;;;;;46.28;7.75;;;;;;;;;;5434275;26;20079;-51
2024/04/25 11:42:30;;;;;;;57.53;8.05;;;;;;;;;;5497101;26;20010;-50
2024/04/25 11:44:56;;;;;;;69.88;9.02;;;;;;;;;;5464780;26;20039;-51
2024/04/25 11:47:22;;;;;;;41.72;6.60;;;;;;;;;;5463971;26;19994;-51
2024/04/25 11:49:49;;;;;;;45.13;5.55;;;;;;;;;;5466263;26;20062;-51
2024/04/25 11:52:15;;;;;;;44.47;5.70;;;;;;;;;;5498835;26;19999;-51
2024/04/25 11:54:41;;;;;;;36.78;5.43;;;;;;;;;;5462094;26;20048;-51
2024/04/25 11:57:07;;;;;;;54.22;7.72;;;;;;;;;;5460476;26;20005;-50
2024/04/25 11:59:33;;;;;;;50.92;8.70;;;;;;;;;;5462463;26;20445;-50
2024/04/25 12:01:59;;;;;;;51.05;6.53;;;;;;;;;;5462849;26;19994;-51
2024/04/25 12:04:25;;;;;;;64.10;9.00;;;;;;;;;;5459714;26;20034;-51
2024/04/25 12:06:51;;;;;;;73.70;11.15;;;;;;;;;;5497915;26;20074;-51
2024/04/25 12:09:18;;;;;;;49.97;7.43;;;;;;;;;;5433915;26;20037;-51
2024/04/25 12:11:46;;;;;;;49.90;6.72;;;;;;;;;;5456075;26;20017;-51
2024/04/25 12:14:12;;;;;;;41.42;5.88;;;;;;;;;;5490212;26;20017;-51
2024/04/25 12:16:38;;;;;;;41.58;6.95;;;;;;;;;;5434674;26;20527;-50
2024/04/25 12:19:04;;;;;;;46.20;5.93;;;;;;;;;;5493138;26;20006;-51
2024/04/25 12:21:31;;;;;;;59.20;7.63;;;;;;;;;;5468948;26;20070;-51
2024/04/25 12:23:57;;;;;;;61.33;7.75;;;;;;;;;;5486568;26;20013;-50
2024/04/25 12:26:23;;;;;;;36.53;6.55;;;;;;;;;;5465041;26;19994;-51
2024/04/25 12:28:49;;;;;;;46.33;6.95;;;;;;;;;;5467745;26;20010;-51
2024/04/25 12:31:15;;;;;;;45.28;7.03;;;;;;;;;;5487278;26;20005;-51
2024/04/25 12:33:42;;;;;;;42.10;7.40;;;;;;;;;;5461831;26;20011;-51
2024/04/25 12:36:08;;;;;;;44.38;6.15;;;;;;;;;;5497905;26;20001;-51
2024/04/25 12:38:34;;;;;;;46.60;6.93;;;;;;;;;;5490913;26;20003;-51
2024/04/25 12:41:00;;;;;;;43.33;6.13;;;;;;;;;;5495601;26;20005;-51
2024/04/25 12:43:27;;;;;;;48.13;6.35;;;;;;;;;;5458027;26;20003;-50
2024/04/25 12:45:53;;;;;;;35.25;5.50;;;;;;;;;;5454213;26;20046;-50
2024/04/25 12:48:19;;;;;;;39.78;6.30;;;;;;;;;;5492513;26;19998;-50
2024/04/25 12:50:45;;;;;;;38.88;6.40;;;;;;;;;;5457876;26;20425;-50
2024/04/25 12:53:11;;;;;;;38.42;6.57;;;;;;;;;;5494812;26;19998;-51
2024/04/25 12:55:39;;;;;;;48.00;7.05;;;;;;;;;;5487431;26;20005;-50
2024/04/25 12:58:05;;;;;;;40.63;6.63;;;;;;;;;;5464742;26;19998;-50
2024/04/25 13:00:31;;;;;;;50.95;7.13;;;;;;;;;;5464857;26;20009;-50
2024/04/25 13:02:57;;;;;;;52.88;7.28;;;;;;;;;;5467369;26;20328;-50
2024/04/25 13:05:23;;;;;;;60.58;7.43;;;;;;;;;;5431234;26;19998;-50
2024/04/25 13:07:49;;;;;;;71.38;8.80;;;;;;;;;;5478634;26;20002;-50
2024/04/25 13:10:15;;;;;;;74.85;8.95;;;;;;;;;;5497420;26;21109;-50
2024/04/25 13:12:41;;;;;;;46.35;7.28;;;;;;;;;;5501262;26;20066;-50
2024/04/25 13:15:07;;;;;;;53.33;7.07;;;;;;;;;;5504088;26;20002;-51
2024/04/25 13:17:35;;;;;;;72.97;7.30;;;;;;;;;;5503204;26;20002;-51
2024/04/25 13:20:01;;;;;;;59.13;8.48;;;;;;;;;;5465291;26;20006;-51
2024/04/25 13:22:26;;;;;;;45.35;6.68;;;;;;;;;;5497748;26;20002;-50
2024/04/25 13:24:52;;;;;;;46.60;6.90;;;;;;;;;;5467836;26;19998;-50
2024/04/25 13:27:18;;;;;;;44.88;7.03;;;;;;;;;;5467640;26;20458;-51
2024/04/25 13:29:45;;;;;;;50.67;6.57;;;;;;;;;;5501070;26;20017;-51
2024/04/25 13:32:12;;;;;;;42.30;6.40;;;;;;;;;;5457008;26;20001;-51
2024/04/25 13:34:38;;;;;;;55.55;7.25;;;;;;;;;;5483502;26;20006;-50
2024/04/25 13:37:04;;;;;;;78.40;10.25;;;;;;;;;;5500410;26;20475;-51
2024/04/25 13:39:30;;;;;;;62.28;8.10;;;;;;;;;;5501093;26;20035;-51
2024/04/25 13:41:56;;;;;;;48.17;6.80;;;;;;;;;;5472926;26;19990;-51
2024/04/25 13:44:22;;;;;;;51.58;7.30;;;;;;;;;;5470217;26;20141;-51
2024/04/25 13:46:49;;;;;;;49.45;7.75;;;;;;;;;;5502178;26;19994;-50
2024/04/25 13:49:18;;;;;;;67.57;7.68;;;;;;;;;;5472547;26;20001;-51
2024/04/25 13:51:44;;;;;;;57.92;6.97;;;;;;;;;;5471514;26;20016;-51
2024/04/25 13:54:10;;;;;;;65.00;7.63;;;;;;;;;;5456261;26;19995;-51
2024/04/25 13:56:36;;;;;;;49.97;6.97;;;;;;;;;;5491999;26;20007;-51
2024/04/25 13:59:02;;;;;;;46.15;5.90;;;;;;;;;;5442784;26;19998;-50
2024/04/25 14:01:28;;;;;;;56.92;6.97;;;;;;;;;;5415867;26;20026;-51
2024/04/25 14:03:54;;;;;;;68.82;7.53;;;;;;;;;;5458554;26;20049;-51
2024/04/25 14:06:20;;;;;;;50.17;7.80;;;;;;;;;;5473707;26;20022;-51
2024/04/25 14:08:46;;;;;;;47.65;6.85;;;;;;;;;;5442232;26;20009;-51
2024/04/25 14:11:15;;;;;;;31.88;5.68;;;;;;;;;;5487161;26;19998;-51
2024/04/25 14:13:41;;;;;;;57.78;7.60;;;;;;;;;;5501497;26;19990;-51
2024/04/25 14:16:09;;;;;;;58.72;9.05;;;;;;;;;;5469322;26;19998;-51
2024/04/25 14:18:36;;;;;;;63.10;8.18;;;;;;;;;;5438823;26;20009;-51
2024/04/25 14:21:02;;;;;;;72.25;8.88;;;;;;;;;;5458922;26;20042;-51
2024/04/25 14:23:28;;;;;;;65.50;8.75;;;;;;;;;;5496619;26;19999;-50
2024/04/25 14:28:44;;;;;;;104.70;12.77;;;;;;;;;;5472308;26;20047;-51
2024/04/25 14:31:13;;;;;;;120.35;12.02;;;;;;;;;;5489908;26;19998;-51
2024/04/25 14:33:39;;;;;;;96.88;12.38;;;;;;;;;;5473291;26;20075;-51